Terminal Aerodrome Forecast
Issued by NWS Wilmington, NC

Home | Current Version | Previous Version | Text Only | Print | Product List | Glossary On
Versions: 1 2 3 4 5 6 7 8 9 10 11 12
769
FTUS42 KILM 241728
TAFLBT
TAF
KLBT 241728Z 2418/2518 22010KT P6SM SKC
     FM250000 18004KT P6SM FEW250
     FM251600 20008KT P6SM SCT040=

USA.gov is the U.S. government's official web portal to all federal, state and local government web resources and services.